createdAt,value
2023-05-04T00:01:01.147Z,9.20
2023-05-04T00:03:55.367Z,9.80
2023-05-04T00:06:49.671Z,9.60
2023-05-04T00:09:43.911Z,9.10
2023-05-04T00:12:38.101Z,9.50
2023-05-04T00:15:32.068Z,9.40
2023-05-04T00:18:25.829Z,8.90
2023-05-04T00:21:19.737Z,9.60
2023-05-04T00:24:14.027Z,9.90
2023-05-04T00:27:08.213Z,8.90
2023-05-04T00:30:02.389Z,9.10
2023-05-04T00:32:56.992Z,9.60
2023-05-04T00:35:50.981Z,9.40
2023-05-04T00:38:53.360Z,9.60
2023-05-04T00:41:47.076Z,9.30
2023-05-04T00:44:41.900Z,9.50
2023-05-04T00:47:36.763Z,9.60
2023-05-04T00:50:31.840Z,9.20
2023-05-04T00:53:25.816Z,9.50
2023-05-04T00:56:19.765Z,9.20
2023-05-04T00:59:13.959Z,9.20
2023-05-04T01:02:08.002Z,9.10
2023-05-04T01:05:02.871Z,9.40
2023-05-04T01:08:05.292Z,9.70
2023-05-04T01:11:16.309Z,9.70
2023-05-04T01:14:11.342Z,9.60
2023-05-04T01:17:06.572Z,9.20
2023-05-04T01:20:00.745Z,9.00
2023-05-04T01:22:54.726Z,8.80
2023-05-04T01:25:58.213Z,9.30
2023-05-04T01:29:00.706Z,9.50
2023-05-04T01:31:55.746Z,9.20
2023-05-04T01:34:49.820Z,9.10
2023-05-04T01:37:44.676Z,9.30
2023-05-04T01:40:38.762Z,9.80
2023-05-04T01:43:33.234Z,10.00
2023-05-04T01:46:27.348Z,9.30
2023-05-04T01:49:21.474Z,9.80
2023-05-04T01:52:15.843Z,9.80
2023-05-04T01:55:11.163Z,8.90
2023-05-04T01:58:05.108Z,9.40
2023-05-04T02:00:59.576Z,8.90
2023-05-04T02:03:53.533Z,9.30
2023-05-04T02:06:48.019Z,9.10
2023-05-04T02:09:41.952Z,9.10
2023-05-04T02:12:35.897Z,8.40
2023-05-04T02:15:30.141Z,9.30
2023-05-04T02:18:24.054Z,8.80
2023-05-04T02:21:18.719Z,9.10
2023-05-04T02:24:12.828Z,8.60
2023-05-04T02:27:09.961Z,9.60
2023-05-04T02:30:04.714Z,9.00
2023-05-04T02:32:58.748Z,8.90
2023-05-04T02:35:53.000Z,8.60
2023-05-04T02:38:46.884Z,8.40
2023-05-04T02:41:40.778Z,8.50
2023-05-04T02:44:34.949Z,8.60
2023-05-04T02:47:29.150Z,8.90
2023-05-04T02:50:23.054Z,8.80
2023-05-04T02:53:17.291Z,8.00
2023-05-04T02:56:11.751Z,8.40
2023-05-04T02:59:05.882Z,8.80
2023-05-04T03:01:59.807Z,8.70
2023-05-04T03:04:54.119Z,9.40
2023-05-04T03:07:48.503Z,8.90
2023-05-04T03:10:42.523Z,9.40
2023-05-04T03:13:36.678Z,9.80
2023-05-04T03:16:30.790Z,8.80
2023-05-04T03:19:24.680Z,9.70
2023-05-04T03:22:18.907Z,8.30
2023-05-04T03:25:13.678Z,11.00
2023-05-04T03:28:08.435Z,9.20
2023-05-04T03:31:02.822Z,8.10
2023-05-04T03:33:56.567Z,8.00
2023-05-04T03:36:50.839Z,8.10
2023-05-04T03:39:45.164Z,7.50
2023-05-04T03:42:39.204Z,8.00
2023-05-04T03:45:33.590Z,7.60
2023-05-04T03:48:27.520Z,8.00
2023-05-04T03:51:21.496Z,7.60
2023-05-04T03:54:15.477Z,7.90
2023-05-04T03:57:09.674Z,7.90
2023-05-04T04:00:04.218Z,7.40
2023-05-04T04:02:58.217Z,8.10
2023-05-04T04:05:52.569Z,8.10
2023-05-04T04:08:46.731Z,8.00
2023-05-04T04:11:43.633Z,8.00
2023-05-04T04:14:38.276Z,7.50
2023-05-04T04:17:32.491Z,7.80
2023-05-04T04:20:26.431Z,11.40
2023-05-04T04:23:21.710Z,10.10
2023-05-04T04:26:15.909Z,8.40
2023-05-04T04:29:10.205Z,7.80
2023-05-04T04:32:04.353Z,7.70
2023-05-04T04:34:58.116Z,8.40
2023-05-04T04:37:52.355Z,6.90
2023-05-04T04:40:46.322Z,7.30
2023-05-04T04:43:40.237Z,7.50
2023-05-04T04:46:34.189Z,7.80
2023-05-04T04:49:28.135Z,6.80
2023-05-04T04:52:23.362Z,7.30
2023-05-04T04:55:18.620Z,7.30
2023-05-04T04:58:12.390Z,7.20
2023-05-04T05:01:09.323Z,6.70
2023-05-04T05:04:03.120Z,7.00
2023-05-04T05:06:56.920Z,7.40
2023-05-04T05:09:51.741Z,6.70
2023-05-04T05:12:45.999Z,6.40
2023-05-04T05:15:39.978Z,6.60
2023-05-04T05:18:34.263Z,6.70
2023-05-04T05:21:28.210Z,6.50
2023-05-04T05:24:22.188Z,6.70
2023-05-04T05:27:16.593Z,6.60
2023-05-04T05:30:12.456Z,6.20
2023-05-04T05:33:06.630Z,5.60
2023-05-04T05:36:00.521Z,5.60
2023-05-04T05:38:54.727Z,5.40
2023-05-04T05:41:48.597Z,5.40
2023-05-04T05:44:42.408Z,5.20
2023-05-04T05:47:36.829Z,5.80
2023-05-04T05:50:31.197Z,5.80
2023-05-04T05:53:25.151Z,5.40
2023-05-04T05:56:20.500Z,5.30
2023-05-04T05:59:15.528Z,5.30
2023-05-04T06:02:09.653Z,4.90
2023-05-04T06:05:03.879Z,5.20
2023-05-04T06:07:58.157Z,6.60
2023-05-04T06:10:52.545Z,5.00
2023-05-04T06:13:46.629Z,5.10
2023-05-04T06:16:41.671Z,4.40
2023-05-04T06:19:39.062Z,4.60
2023-05-04T06:22:33.615Z,4.20
2023-05-04T06:25:27.486Z,4.10
2023-05-04T06:28:21.482Z,4.30
2023-05-04T06:31:15.589Z,4.00
2023-05-04T06:34:11.667Z,2.90
2023-05-04T06:37:05.225Z,3.30
2023-05-04T06:39:58.871Z,3.10
2023-05-04T06:42:52.390Z,3.50
2023-05-04T06:45:46.159Z,2.90
2023-05-04T06:48:40.315Z,2.80
2023-05-04T06:51:37.494Z,3.00
2023-05-04T06:54:31.751Z,3.10
2023-05-04T06:57:26.505Z,2.70
2023-05-04T07:00:23.225Z,2.50
2023-05-04T07:03:16.990Z,2.70
2023-05-04T07:06:14.005Z,3.60
2023-05-04T07:09:08.475Z,3.30
2023-05-04T07:12:03.010Z,3.00
2023-05-04T07:14:57.043Z,3.00
2023-05-04T07:17:51.140Z,3.10
2023-05-04T07:20:46.453Z,2.70
2023-05-04T07:23:40.381Z,2.70
2023-05-04T07:26:34.180Z,3.00
2023-05-04T07:29:28.343Z,2.20
2023-05-04T07:32:22.557Z,2.10
2023-05-04T07:35:16.797Z,2.20
2023-05-04T07:38:10.445Z,2.90
2023-05-04T07:41:04.329Z,2.70
2023-05-04T07:43:58.293Z,2.50
2023-05-04T07:46:52.214Z,2.70
2023-05-04T07:49:46.172Z,2.20
2023-05-04T07:52:39.901Z,2.70
2023-05-04T07:55:33.733Z,2.50
2023-05-04T07:58:27.382Z,2.80
2023-05-04T08:01:21.318Z,3.20
2023-05-04T08:04:15.141Z,2.50
2023-05-04T08:07:09.778Z,2.40
2023-05-04T08:10:04.139Z,2.80
2023-05-04T08:12:58.566Z,2.50
2023-05-04T08:15:52.663Z,2.20
2023-05-04T08:18:46.411Z,2.50
2023-05-04T08:21:40.728Z,2.40
2023-05-04T08:24:34.795Z,2.40
2023-05-04T08:27:29.278Z,2.40
2023-05-04T08:30:23.333Z,2.30
2023-05-04T08:33:17.233Z,2.50
2023-05-04T08:36:11.467Z,2.10
2023-05-04T08:39:05.086Z,2.20
2023-05-04T08:41:59.357Z,2.30
2023-05-04T08:44:53.083Z,2.40
2023-05-04T08:47:46.752Z,2.60
2023-05-04T08:50:41.274Z,2.50
2023-05-04T08:53:37.232Z,2.10
2023-05-04T08:56:31.117Z,2.40
2023-05-04T08:59:26.213Z,2.50
2023-05-04T09:02:22.831Z,2.60
2023-05-04T09:05:17.229Z,2.40
2023-05-04T09:08:11.194Z,3.40
2023-05-04T09:11:05.564Z,2.90
2023-05-04T09:13:59.230Z,2.80
2023-05-04T09:16:53.171Z,2.70
2023-05-04T09:19:47.122Z,2.40
2023-05-04T09:23:00.305Z,2.50
2023-05-04T09:25:55.139Z,2.80
2023-05-04T09:28:52.146Z,2.50
2023-05-04T09:31:51.791Z,2.30
2023-05-04T09:34:55.836Z,2.70
2023-05-04T09:37:50.563Z,2.60
2023-05-04T09:40:47.158Z,2.50
2023-05-04T09:43:44.988Z,2.50
2023-05-04T09:46:39.284Z,2.20
2023-05-04T09:49:37.382Z,2.50
2023-05-04T09:52:33.758Z,2.40
2023-05-04T09:55:28.489Z,2.30
2023-05-04T09:58:24.703Z,2.10
2023-05-04T10:01:18.986Z,2.40
2023-05-04T10:04:13.082Z,2.40
2023-05-04T10:07:09.232Z,2.40
2023-05-04T10:10:03.546Z,2.30
2023-05-04T10:12:57.228Z,2.80
2023-05-04T10:16:10.751Z,2.80
2023-05-04T10:19:44.398Z,2.50
2023-05-04T10:22:54.054Z,2.10
2023-05-04T10:26:08.280Z,2.40
2023-05-04T10:29:13.449Z,3.10
2023-05-04T10:32:17.853Z,2.80
2023-05-04T10:35:14.308Z,2.20
2023-05-04T10:38:08.106Z,2.50
2023-05-04T10:41:02.252Z,2.60
2023-05-04T10:44:16.380Z,2.70
2023-05-04T10:47:11.761Z,3.10
2023-05-04T10:50:08.801Z,2.60
2023-05-04T10:53:02.544Z,2.50
2023-05-04T10:55:56.550Z,2.40
2023-05-04T10:58:50.773Z,2.90
2023-05-04T11:01:47.583Z,2.50
2023-05-04T11:04:41.454Z,2.60
2023-05-04T11:07:40.072Z,2.80
2023-05-04T11:10:34.175Z,2.90
2023-05-04T11:13:28.702Z,2.50
2023-05-04T11:16:28.933Z,2.70
2023-05-04T11:19:22.829Z,2.60
2023-05-04T11:22:17.074Z,2.70
2023-05-04T11:25:12.031Z,2.70
2023-05-04T11:28:06.630Z,2.70
2023-05-04T11:31:00.980Z,2.90
2023-05-04T11:33:57.306Z,2.60
2023-05-04T11:36:51.603Z,2.60
2023-05-04T11:39:45.309Z,2.20
2023-05-04T11:42:41.186Z,2.40
2023-05-04T11:45:38.183Z,2.50
2023-05-04T11:48:32.341Z,2.40
2023-05-04T11:51:29.980Z,2.40
2023-05-04T11:57:26.931Z,2.40
2023-05-04T12:00:23.113Z,2.20
2023-05-04T12:03:19.013Z,2.10
2023-05-04T12:06:12.997Z,2.40
2023-05-04T12:09:10.614Z,2.40
2023-05-04T12:12:04.206Z,2.30
2023-05-04T12:14:59.085Z,1.90
2023-05-04T12:17:53.303Z,2.50
2023-05-04T12:20:48.284Z,2.30
2023-05-04T12:23:42.504Z,2.30
2023-05-04T12:26:37.704Z,2.10
2023-05-04T12:29:31.887Z,2.10
2023-05-04T12:32:25.506Z,2.30
2023-05-04T12:35:19.402Z,2.40
2023-05-04T12:38:13.243Z,2.10
2023-05-04T12:41:02.319Z,2.10
2023-05-04T12:43:56.851Z,2.40
2023-05-04T12:46:50.547Z,2.20
2023-05-04T12:49:44.379Z,2.10
2023-05-04T12:52:39.888Z,2.30
2023-05-04T12:55:33.736Z,2.20
2023-05-04T12:58:27.557Z,2.40
2023-05-04T13:01:21.403Z,2.60
2023-05-04T13:04:15.268Z,2.70
2023-05-04T13:07:08.963Z,2.20
2023-05-04T13:10:02.713Z,2.10
2023-05-04T13:12:56.588Z,2.40
2023-05-04T13:15:53.813Z,2.30
2023-05-04T13:18:47.482Z,2.60
2023-05-04T13:21:41.157Z,2.30
2023-05-04T13:24:34.813Z,2.40
2023-05-04T13:27:28.532Z,2.30
2023-05-04T13:30:22.892Z,2.70
2023-05-04T13:33:27.871Z,2.70
2023-05-04T13:36:23.683Z,2.60
2023-05-04T13:39:15.662Z,2.60
2023-05-04T13:42:09.829Z,2.40
2023-05-04T13:45:03.747Z,2.60
2023-05-04T13:47:57.963Z,2.40
2023-05-04T13:50:52.076Z,2.70
2023-05-04T13:53:45.870Z,2.30
2023-05-04T13:56:39.537Z,2.20
2023-05-04T13:59:34.254Z,2.40
2023-05-04T14:02:28.129Z,2.50
2023-05-04T14:05:22.147Z,3.10
2023-05-04T14:08:15.894Z,2.90
2023-05-04T14:11:09.608Z,2.80
2023-05-04T14:14:03.541Z,2.90
2023-05-04T14:16:57.346Z,3.00
2023-05-04T14:19:51.048Z,3.30
2023-05-04T14:22:45.147Z,3.40
2023-05-04T14:25:38.848Z,2.60
2023-05-04T14:28:32.777Z,2.90
2023-05-04T14:31:26.460Z,3.00
2023-05-04T14:34:20.435Z,3.00
2023-05-04T14:37:14.430Z,2.60
2023-05-04T14:40:10.627Z,3.10
2023-05-04T14:43:05.825Z,2.90
2023-05-04T14:46:01.563Z,2.90
2023-05-04T14:48:55.561Z,2.80
2023-05-04T14:51:49.256Z,2.60
2023-05-04T14:54:45.100Z,2.70
2023-05-04T14:57:38.862Z,2.40
2023-05-04T15:00:32.713Z,2.70
2023-05-04T15:03:26.583Z,2.80
2023-05-04T15:06:20.595Z,2.50
2023-05-04T15:09:14.089Z,2.50
2023-05-04T15:12:08.893Z,2.20
2023-05-04T15:15:02.782Z,2.70
2023-05-04T15:17:56.562Z,2.50
2023-05-04T15:20:50.275Z,2.60
2023-05-04T15:23:43.823Z,2.10
2023-05-04T15:26:37.645Z,2.30
2023-05-04T15:29:31.188Z,2.30
2023-05-04T15:32:24.827Z,2.40
2023-05-04T15:35:18.722Z,2.40
2023-05-04T15:38:12.819Z,2.30
2023-05-04T15:41:06.748Z,2.20
2023-05-04T15:44:01.003Z,2.40
2023-05-04T15:46:54.632Z,2.70
2023-05-04T15:49:48.223Z,2.60
2023-05-04T15:52:41.916Z,2.20
2023-05-04T15:55:35.463Z,2.50
2023-05-04T15:58:29.014Z,2.60
2023-05-04T16:01:22.701Z,2.00
2023-05-04T16:04:17.619Z,2.10
2023-05-04T16:07:11.342Z,1.80
2023-05-04T16:10:05.336Z,2.40
2023-05-04T16:13:03.909Z,2.20
2023-05-04T16:15:58.188Z,2.10
2023-05-04T16:18:51.819Z,2.00
2023-05-04T16:21:45.347Z,1.80
2023-05-04T16:24:39.105Z,1.80
2023-05-04T16:27:32.946Z,1.80
2023-05-04T16:30:32.232Z,1.90
2023-05-04T16:33:26.761Z,1.70
2023-05-04T16:36:20.672Z,2.00
2023-05-04T16:39:14.589Z,1.70
2023-05-04T16:42:08.394Z,1.90
2023-05-04T16:45:02.019Z,2.40
2023-05-04T16:47:56.125Z,2.30
2023-05-04T16:50:49.802Z,2.50
2023-05-04T16:53:43.622Z,2.50
2023-05-04T16:56:37.548Z,2.10
2023-05-04T16:59:31.506Z,2.30
2023-05-04T17:02:25.781Z,2.30
2023-05-04T17:05:19.798Z,1.90
2023-05-04T17:08:13.643Z,2.10
2023-05-04T17:11:07.659Z,2.40
2023-05-04T17:14:03.508Z,2.70
2023-05-04T17:16:57.959Z,3.00
2023-05-04T17:19:51.682Z,4.20
2023-05-04T17:22:46.533Z,3.60
2023-05-04T17:25:40.291Z,3.20
2023-05-04T17:28:34.230Z,2.60
2023-05-04T17:31:28.079Z,2.70
2023-05-04T17:34:21.757Z,3.00
2023-05-04T17:37:15.554Z,3.40
2023-05-04T17:40:12.246Z,3.10
2023-05-04T17:43:06.390Z,2.90
2023-05-04T17:46:02.168Z,3.30
2023-05-04T17:48:56.569Z,2.90
2023-05-04T17:51:41.324Z,3.20
2023-05-04T17:54:35.168Z,3.50
2023-05-04T17:57:29.103Z,3.30
2023-05-04T18:00:24.039Z,3.20
2023-05-04T18:03:17.884Z,3.40
2023-05-04T18:06:12.286Z,3.00
2023-05-04T18:09:06.731Z,3.10
2023-05-04T18:12:00.972Z,3.10
2023-05-04T18:14:55.010Z,3.20
2023-05-04T18:17:50.620Z,3.30
2023-05-04T18:20:44.726Z,2.70
2023-05-04T18:23:38.391Z,3.20
2023-05-04T18:26:32.220Z,3.10
2023-05-04T18:29:26.035Z,3.20
2023-05-04T18:32:19.840Z,3.10
2023-05-04T18:35:13.770Z,3.40
2023-05-04T18:38:07.332Z,3.30
2023-05-04T18:41:01.223Z,3.10
2023-05-04T18:43:56.036Z,2.80
2023-05-04T18:46:49.751Z,3.10
2023-05-04T18:49:44.035Z,3.20
2023-05-04T18:52:38.170Z,3.30
2023-05-04T18:55:32.178Z,3.00
2023-05-04T18:58:25.991Z,3.00
2023-05-04T19:01:19.836Z,3.50
2023-05-04T19:04:13.782Z,3.10
2023-05-04T19:07:09.709Z,3.70
2023-05-04T19:10:04.150Z,3.80
2023-05-04T19:12:58.222Z,3.60
2023-05-04T19:15:52.134Z,2.80
2023-05-04T19:18:46.219Z,3.40
2023-05-04T19:21:40.339Z,3.30
2023-05-04T19:24:38.967Z,3.90
2023-05-04T19:27:33.501Z,3.70
2023-05-04T19:30:27.215Z,3.50
2023-05-04T19:33:21.685Z,3.30
2023-05-04T19:36:16.250Z,3.60
2023-05-04T19:39:10.418Z,3.70
2023-05-04T19:42:04.451Z,3.40
2023-05-04T19:44:58.465Z,4.30
2023-05-04T19:47:52.466Z,3.40
2023-05-04T19:50:46.701Z,3.30
2023-05-04T19:53:40.571Z,3.90
2023-05-04T19:56:34.812Z,3.60
2023-05-04T19:59:28.741Z,4.20
2023-05-04T20:02:22.593Z,4.10
2023-05-04T20:05:16.896Z,3.90
2023-05-04T20:08:10.799Z,4.40
2023-05-04T20:11:04.577Z,3.80
2023-05-04T20:13:58.622Z,4.00
2023-05-04T20:16:52.611Z,3.70
2023-05-04T20:19:47.474Z,4.60
2023-05-04T20:22:41.845Z,4.20
2023-05-04T20:25:35.572Z,4.20
2023-05-04T20:28:29.354Z,4.10
2023-05-04T20:31:23.097Z,4.30
2023-05-04T20:34:18.887Z,4.30
2023-05-04T20:37:13.335Z,4.70
2023-05-04T20:40:09.250Z,5.00
2023-05-04T20:43:03.894Z,4.70
2023-05-04T20:45:58.449Z,4.40
2023-05-04T20:48:52.453Z,5.00
2023-05-04T20:51:46.322Z,4.70
2023-05-04T20:54:40.324Z,4.50
2023-05-04T20:57:34.550Z,4.90
2023-05-04T21:00:28.873Z,4.20
2023-05-04T21:03:22.929Z,4.80
2023-05-04T21:06:17.056Z,4.90
2023-05-04T21:09:11.518Z,5.00
2023-05-04T21:12:05.962Z,4.60
2023-05-04T21:14:59.870Z,5.20
2023-05-04T21:17:54.142Z,4.60
2023-05-04T21:20:49.039Z,4.80
2023-05-04T21:23:42.859Z,5.10
2023-05-04T21:26:37.361Z,5.10
2023-05-04T21:29:31.163Z,5.50
2023-05-04T21:32:25.103Z,5.20
2023-05-04T21:35:21.144Z,5.10
2023-05-04T21:38:14.928Z,4.90
2023-05-04T21:41:16.384Z,5.20
2023-05-04T21:44:10.879Z,5.80
2023-05-04T21:47:05.125Z,5.50
2023-05-04T21:50:00.754Z,5.50
2023-05-04T21:52:54.920Z,6.10
2023-05-04T21:55:48.679Z,5.80
2023-05-04T21:58:43.507Z,6.30
2023-05-04T22:01:37.770Z,6.50
2023-05-04T22:04:31.844Z,6.60
2023-05-04T22:07:26.820Z,5.80
2023-05-04T22:10:20.822Z,6.20
2023-05-04T22:13:15.108Z,5.90
2023-05-04T22:16:10.790Z,6.00
2023-05-04T22:19:04.666Z,6.20
2023-05-04T22:21:58.421Z,6.60
2023-05-04T22:24:52.644Z,7.00
2023-05-04T22:27:46.723Z,6.90
2023-05-04T22:30:40.913Z,7.50
2023-05-04T22:33:34.900Z,6.50
2023-05-04T22:36:28.790Z,6.50
2023-05-04T22:39:13.463Z,6.00
2023-05-04T22:42:07.779Z,6.60
2023-05-04T22:45:01.544Z,5.90
2023-05-04T22:47:55.939Z,6.40
2023-05-04T22:50:50.817Z,6.00
2023-05-04T22:53:44.922Z,6.60
2023-05-04T22:56:38.703Z,6.80
2023-05-04T22:59:32.641Z,7.10
2023-05-04T23:02:27.282Z,5.70
2023-05-04T23:05:21.582Z,5.70
2023-05-04T23:08:15.946Z,6.30
2023-05-04T23:11:09.732Z,6.60
2023-05-04T23:14:03.608Z,6.00
2023-05-04T23:16:57.957Z,5.80
2023-05-04T23:19:51.843Z,6.20
2023-05-04T23:22:45.828Z,6.10
2023-05-04T23:25:40.466Z,6.10
2023-05-04T23:28:34.214Z,6.20
2023-05-04T23:31:28.797Z,5.90
2023-05-04T23:34:23.124Z,6.40
2023-05-04T23:37:17.408Z,5.70
2023-05-04T23:40:13.609Z,5.90
2023-05-04T23:43:08.000Z,5.80
2023-05-04T23:46:06.268Z,5.90
2023-05-04T23:49:00.115Z,6.30
2023-05-04T23:51:53.946Z,5.70
2023-05-04T23:54:48.003Z,5.80
2023-05-04T23:57:43.881Z,5.70
